createdAt,value
2022-11-09T00:01:44.954Z,73.09
2022-11-09T00:04:14.032Z,73.34
2022-11-09T00:06:43.045Z,73.15
2022-11-09T00:09:13.376Z,72.98
2022-11-09T00:11:42.335Z,73.42
2022-11-09T00:14:15.903Z,73.05
2022-11-09T00:16:44.935Z,73.17
2022-11-09T00:19:14.101Z,72.77
2022-11-09T00:21:43.138Z,72.87
2022-11-09T00:24:13.678Z,73.01
2022-11-09T00:26:42.644Z,73.90
2022-11-09T00:29:11.838Z,73.28
2022-11-09T00:31:40.784Z,73.86
2022-11-09T00:34:09.713Z,74.09
2022-11-09T00:36:38.638Z,73.79
2022-11-09T00:39:10.934Z,73.77
2022-11-09T00:41:41.227Z,74.07
2022-11-09T00:44:10.209Z,74.59
2022-11-09T00:46:39.305Z,74.05
2022-11-09T00:49:08.519Z,74.76
2022-11-09T00:51:37.571Z,74.61
2022-11-09T00:54:08.057Z,74.22
2022-11-09T00:56:36.992Z,75.03
2022-11-09T00:59:07.570Z,75.08
2022-11-09T01:01:36.593Z,74.55
2022-11-09T01:04:07.280Z,74.88
2022-11-09T01:06:36.362Z,74.25
2022-11-09T01:09:05.889Z,74.96
2022-11-09T01:11:34.830Z,74.06
2022-11-09T01:14:04.103Z,75.05
2022-11-09T01:16:34.348Z,75.06
2022-11-09T01:19:06.267Z,74.58
2022-11-09T01:21:35.291Z,75.38
2022-11-09T01:24:04.389Z,75.73
2022-11-09T01:26:33.783Z,74.99
2022-11-09T01:29:02.850Z,75.23
2022-11-09T01:31:35.619Z,75.74
2022-11-09T01:34:04.584Z,76.85
2022-11-09T01:36:35.443Z,77.10
2022-11-09T01:39:04.384Z,77.43
2022-11-09T01:41:33.426Z,77.10
2022-11-09T01:44:07.803Z,77.80
2022-11-09T01:46:47.476Z,78.27
2022-11-09T01:49:23.508Z,78.29
2022-11-09T01:51:56.913Z,78.47
2022-11-09T01:54:31.493Z,79.18
2022-11-09T01:57:04.532Z,78.53
2022-11-09T01:59:39.003Z,78.67
2022-11-09T02:02:10.025Z,78.83
2022-11-09T02:04:48.857Z,79.30
2022-11-09T02:07:19.291Z,79.33
2022-11-09T02:09:52.720Z,79.10
2022-11-09T02:12:23.862Z,80.28
2022-11-09T02:14:54.484Z,79.30
2022-11-09T02:17:25.528Z,79.30
2022-11-09T02:19:54.767Z,79.17
2022-11-09T02:22:25.185Z,79.21
2022-11-09T02:24:56.459Z,79.53
2022-11-09T02:27:26.155Z,78.69
2022-11-09T02:29:58.082Z,78.66
2022-11-09T02:32:30.545Z,78.30
2022-11-09T02:35:01.040Z,78.63
2022-11-09T02:37:35.884Z,78.34
2022-11-09T02:40:09.188Z,78.63
2022-11-09T02:42:38.389Z,78.61
2022-11-09T02:45:09.210Z,79.05
2022-11-09T02:47:39.579Z,79.37
2022-11-09T02:50:09.102Z,79.25
2022-11-09T02:52:40.116Z,80.04
2022-11-09T02:55:11.142Z,79.25
2022-11-09T02:57:41.528Z,78.98
2022-11-09T03:00:14.073Z,79.17
2022-11-09T03:02:44.209Z,79.83
2022-11-09T03:05:14.235Z,79.13
2022-11-09T03:07:46.642Z,79.62
2022-11-09T03:10:16.413Z,79.69
2022-11-09T03:12:45.443Z,80.22
2022-11-09T03:15:16.635Z,79.99
2022-11-09T03:17:47.776Z,80.14
2022-11-09T03:20:18.612Z,80.34
2022-11-09T03:22:48.919Z,80.34
2022-11-09T03:25:18.368Z,80.02
2022-11-09T03:27:47.521Z,80.35
2022-11-09T03:30:18.950Z,80.85
2022-11-09T03:32:50.569Z,80.35
2022-11-09T03:35:19.841Z,80.85
2022-11-09T03:37:50.358Z,80.77
2022-11-09T03:40:20.106Z,80.75
2022-11-09T03:42:51.561Z,80.75
2022-11-09T03:45:20.553Z,80.80
2022-11-09T03:47:49.780Z,81.37
2022-11-09T03:50:19.514Z,80.96
2022-11-09T03:52:49.943Z,81.03
2022-11-09T03:55:19.055Z,81.00
2022-11-09T03:57:48.379Z,81.40
2022-11-09T04:00:20.179Z,81.62
2022-11-09T04:02:49.674Z,81.43
2022-11-09T04:05:18.969Z,81.77
2022-11-09T04:07:56.657Z,81.72
2022-11-09T04:10:27.421Z,81.97
2022-11-09T04:12:56.625Z,82.10
2022-11-09T04:15:25.613Z,82.18
2022-11-09T04:17:59.721Z,82.38
2022-11-09T04:20:30.306Z,81.94
2022-11-09T04:23:03.417Z,82.56
2022-11-09T04:25:35.277Z,82.19
2022-11-09T04:28:06.109Z,81.64
2022-11-09T04:30:37.044Z,81.96
2022-11-09T04:33:06.296Z,81.43
2022-11-09T04:35:36.651Z,81.08
2022-11-09T04:38:08.705Z,80.71
2022-11-09T04:40:38.225Z,80.71
2022-11-09T04:43:09.370Z,81.17
2022-11-09T04:45:38.369Z,81.43
2022-11-09T04:48:08.698Z,81.64
2022-11-09T04:50:37.742Z,81.84
2022-11-09T04:53:10.240Z,82.30
2022-11-09T04:55:39.879Z,82.39
2022-11-09T04:58:09.038Z,82.61
2022-11-09T05:00:38.953Z,82.00
2022-11-09T05:03:08.900Z,82.31
2022-11-09T05:05:44.039Z,81.63
2022-11-09T05:08:17.493Z,81.58
2022-11-09T05:10:46.453Z,81.86
2022-11-09T05:13:15.897Z,82.02
2022-11-09T05:15:44.952Z,82.46
2022-11-09T05:18:14.023Z,82.43
2022-11-09T05:20:42.965Z,82.58
2022-11-09T05:23:29.912Z,83.12
2022-11-09T05:26:00.189Z,83.23
2022-11-09T05:28:29.146Z,82.48
2022-11-09T05:30:58.293Z,82.86
2022-11-09T05:33:27.417Z,83.08
2022-11-09T05:35:56.774Z,82.63
2022-11-09T05:38:26.580Z,82.46
2022-11-09T05:40:56.339Z,82.74
2022-11-09T05:43:26.617Z,82.44
2022-11-09T05:45:55.613Z,82.44
2022-11-09T05:48:24.665Z,86.37
2022-11-09T05:50:53.652Z,87.46
2022-11-09T05:53:28.745Z,88.25
2022-11-09T05:55:57.721Z,88.41
2022-11-09T05:58:28.057Z,88.99
2022-11-09T06:00:57.014Z,89.63
2022-11-09T06:03:25.996Z,89.92
2022-11-09T06:05:54.900Z,89.38
2022-11-09T06:08:23.809Z,89.80
2022-11-09T06:10:58.463Z,89.63
2022-11-09T06:13:29.087Z,89.42
2022-11-09T06:15:59.800Z,89.40
2022-11-09T06:18:31.209Z,89.14
2022-11-09T06:21:02.754Z,89.55
2022-11-09T06:23:32.408Z,88.60
2022-11-09T06:26:03.404Z,88.17
2022-11-09T06:28:34.359Z,89.14
2022-11-09T06:31:05.010Z,87.68
2022-11-09T06:33:35.721Z,87.37
2022-11-09T06:36:05.679Z,87.64
2022-11-09T06:38:34.622Z,86.55
2022-11-09T06:41:03.624Z,86.45
2022-11-09T06:43:34.139Z,87.47
2022-11-09T06:46:05.371Z,86.23
2022-11-09T06:48:34.552Z,85.67
2022-11-09T06:51:04.643Z,85.30
2022-11-09T06:53:34.854Z,86.04
2022-11-09T06:56:05.517Z,86.19
2022-11-09T06:58:36.342Z,85.69
2022-11-09T07:01:09.661Z,85.15
2022-11-09T07:03:39.343Z,84.92
2022-11-09T07:06:11.267Z,84.63
2022-11-09T07:08:40.921Z,84.82
2022-11-09T07:11:12.284Z,85.28
2022-11-09T07:13:42.687Z,85.16
2022-11-09T07:16:12.941Z,84.89
2022-11-09T07:18:42.666Z,85.16
2022-11-09T07:21:14.318Z,84.57
2022-11-09T07:23:44.394Z,84.44
2022-11-09T07:26:13.357Z,83.77
2022-11-09T07:28:43.777Z,83.35
2022-11-09T07:31:12.784Z,83.65
2022-11-09T07:33:41.818Z,83.43
2022-11-09T07:36:11.094Z,83.21
2022-11-09T07:38:40.002Z,83.09
2022-11-09T07:41:08.890Z,83.77
2022-11-09T07:43:38.067Z,83.48
2022-11-09T07:46:08.463Z,83.90
2022-11-09T07:48:37.590Z,83.93
2022-11-09T07:51:06.801Z,82.72
2022-11-09T07:53:35.856Z,82.83
2022-11-09T07:56:05.887Z,83.11
2022-11-09T07:58:36.793Z,82.55
2022-11-09T08:01:10.651Z,81.22
2022-11-09T08:03:39.845Z,81.63
2022-11-09T08:06:11.060Z,80.42
2022-11-09T08:08:42.119Z,80.00
2022-11-09T08:11:11.230Z,79.94
2022-11-09T08:13:40.334Z,78.84
2022-11-09T08:16:10.877Z,79.34
2022-11-09T08:18:39.869Z,79.65
2022-11-09T08:21:08.878Z,79.21
2022-11-09T08:23:38.086Z,79.18
2022-11-09T08:26:08.009Z,78.92
2022-11-09T08:28:37.039Z,78.93
2022-11-09T08:31:07.976Z,78.90
2022-11-09T08:33:40.189Z,78.16
2022-11-09T08:36:13.843Z,77.29
2022-11-09T08:38:44.170Z,77.77
2022-11-09T08:41:14.510Z,76.85
2022-11-09T08:43:43.528Z,77.21
2022-11-09T08:46:12.680Z,76.60
2022-11-09T08:48:42.982Z,76.46
2022-11-09T08:51:11.960Z,77.21
2022-11-09T08:53:40.896Z,76.30
2022-11-09T08:56:12.003Z,75.88
2022-11-09T08:58:41.091Z,76.05
2022-11-09T09:01:16.423Z,75.11
2022-11-09T09:03:47.658Z,74.35
2022-11-09T09:06:16.570Z,74.21
2022-11-09T09:08:45.517Z,73.61
2022-11-09T09:11:15.232Z,72.88
2022-11-09T09:13:44.149Z,73.36
2022-11-09T09:16:14.922Z,73.57
2022-11-09T09:18:44.104Z,73.13
2022-11-09T09:21:14.453Z,73.24
2022-11-09T09:23:43.424Z,73.53
2022-11-09T09:26:12.476Z,72.78
2022-11-09T09:28:41.590Z,73.33
2022-11-09T09:31:14.298Z,72.85
2022-11-09T09:33:47.486Z,71.75
2022-11-09T09:36:20.540Z,71.65
2022-11-09T09:38:52.522Z,70.69
2022-11-09T09:41:27.475Z,71.52
2022-11-09T09:44:02.334Z,71.79
2022-11-09T09:46:38.616Z,72.01
2022-11-09T09:49:13.492Z,71.66
2022-11-09T09:51:51.275Z,72.28
2022-11-09T09:54:24.053Z,72.68
2022-11-09T09:56:55.302Z,73.07
2022-11-09T09:59:33.013Z,73.25
2022-11-09T10:02:02.132Z,72.34
2022-11-09T10:04:37.936Z,71.18
2022-11-09T10:07:19.781Z,70.83
2022-11-09T10:10:05.020Z,71.08
2022-11-09T10:12:42.936Z,70.86
2022-11-09T10:15:23.873Z,70.57
2022-11-09T10:18:06.792Z,70.10
2022-11-09T10:20:57.881Z,70.15
2022-11-09T10:23:40.231Z,69.89
2022-11-09T10:26:18.956Z,69.70
2022-11-09T10:29:14.950Z,70.71
2022-11-09T10:31:45.078Z,70.94
2022-11-09T10:34:19.754Z,71.79
2022-11-09T10:36:56.861Z,71.02
2022-11-09T10:39:35.142Z,70.01
2022-11-09T10:42:22.598Z,69.89
2022-11-09T10:45:24.683Z,69.99
2022-11-09T10:48:14.357Z,69.51
2022-11-09T10:51:02.177Z,70.04
2022-11-09T10:53:49.813Z,70.15
2022-11-09T10:57:04.597Z,70.17
2022-11-09T10:59:55.640Z,70.48
2022-11-09T11:02:46.094Z,69.17
2022-11-09T11:05:35.340Z,70.13
2022-11-09T11:08:31.833Z,69.44
2022-11-09T11:11:39.565Z,68.65
2022-11-09T11:14:33.826Z,67.57
2022-11-09T11:17:24.153Z,66.86
2022-11-09T11:20:32.286Z,67.61
2022-11-09T11:23:22.533Z,68.36
2022-11-09T11:26:35.496Z,64.40
2022-11-09T11:29:44.284Z,62.62
2022-11-09T11:32:32.077Z,63.00
2022-11-09T11:35:28.086Z,62.55
2022-11-09T11:38:28.399Z,62.68
2022-11-09T11:41:44.140Z,63.52
2022-11-09T11:44:59.265Z,66.08
2022-11-09T11:48:12.298Z,67.69
2022-11-09T11:51:09.785Z,67.58
2022-11-09T11:54:11.294Z,67.46
2022-11-09T11:57:09.409Z,67.42
2022-11-09T12:00:09.968Z,66.70
2022-11-09T12:03:31.605Z,67.42
2022-11-09T12:06:32.087Z,67.29
2022-11-09T12:09:30.175Z,67.91
2022-11-09T12:12:26.735Z,68.89
2022-11-09T12:15:30.643Z,68.66
2022-11-09T12:18:35.386Z,68.83
2022-11-09T12:21:29.719Z,68.51
2022-11-09T12:24:27.450Z,69.02
2022-11-09T12:27:47.328Z,69.22
2022-11-09T12:30:49.540Z,67.29
2022-11-09T12:33:46.829Z,66.55
2022-11-09T12:36:41.433Z,66.82
2022-11-09T12:39:33.939Z,66.74
2022-11-09T12:42:27.642Z,65.86
2022-11-09T12:45:23.968Z,65.78
2022-11-09T12:48:22.609Z,65.72
2022-11-09T12:51:10.655Z,66.83
2022-11-09T12:54:00.022Z,66.79
2022-11-09T12:56:59.659Z,66.60
2022-11-09T12:59:51.219Z,67.28
2022-11-09T13:02:45.234Z,67.99
2022-11-09T13:05:37.568Z,67.57
2022-11-09T13:08:29.479Z,67.29
2022-11-09T13:11:22.889Z,65.69
2022-11-09T13:14:35.194Z,66.81
2022-11-09T13:18:02.701Z,65.75
2022-11-09T13:20:55.964Z,66.49
2022-11-09T13:24:03.368Z,65.48
2022-11-09T13:26:59.669Z,63.87
2022-11-09T13:29:56.422Z,61.58
2022-11-09T13:33:22.737Z,60.58
2022-11-09T13:36:21.764Z,60.70
2022-11-09T13:39:32.732Z,60.26
2022-11-09T13:42:30.764Z,60.40
2022-11-09T13:45:28.786Z,60.93
2022-11-09T13:48:42.993Z,63.86
2022-11-09T13:51:46.502Z,64.14
2022-11-09T13:54:35.965Z,65.03
2022-11-09T13:57:26.149Z,62.87
2022-11-09T14:00:23.155Z,62.60
2022-11-09T14:03:20.421Z,60.46
2022-11-09T14:06:12.979Z,61.10
2022-11-09T14:09:04.209Z,60.21
2022-11-09T14:12:18.374Z,61.78
2022-11-09T14:15:14.351Z,62.91
2022-11-09T14:18:13.889Z,64.30
2022-11-09T14:21:22.061Z,64.67
2022-11-09T14:24:22.923Z,64.24
2022-11-09T14:27:17.104Z,66.28
2022-11-09T14:30:14.734Z,65.92
2022-11-09T14:33:02.261Z,65.37
2022-11-09T14:35:50.370Z,66.07
2022-11-09T14:38:46.560Z,67.09
2022-11-09T14:41:35.899Z,68.35
2022-11-09T14:44:28.799Z,67.57
2022-11-09T14:47:19.059Z,68.07
2022-11-09T14:50:10.006Z,68.55
2022-11-09T14:52:58.894Z,69.96
2022-11-09T14:55:47.461Z,68.86
2022-11-09T14:58:41.433Z,67.86
2022-11-09T15:01:30.506Z,68.65
2022-11-09T15:04:21.302Z,69.12
2022-11-09T15:07:19.361Z,68.17
2022-11-09T15:10:09.840Z,67.56
2022-11-09T15:13:01.735Z,68.58
2022-11-09T15:15:55.153Z,68.93
2022-11-09T15:18:46.949Z,71.01
2022-11-09T15:21:37.815Z,73.65
2022-11-09T15:24:27.498Z,73.97
2022-11-09T15:27:32.713Z,74.92
2022-11-09T15:30:36.658Z,74.58
2022-11-09T15:33:28.914Z,75.51
2022-11-09T15:36:41.991Z,76.80
2022-11-09T15:39:32.815Z,76.80
2022-11-09T15:42:21.388Z,76.48
2022-11-09T15:45:14.084Z,76.84
2022-11-09T15:48:03.249Z,76.00
2022-11-09T15:50:52.855Z,77.10
2022-11-09T15:53:41.425Z,75.89
2022-11-09T15:56:29.423Z,75.31
2022-11-09T15:59:20.955Z,75.09
2022-11-09T16:02:10.480Z,73.47
2022-11-09T16:04:58.085Z,74.06
2022-11-09T16:07:54.513Z,73.94
2022-11-09T16:10:44.345Z,73.72
2022-11-09T16:13:31.901Z,72.82
2022-11-09T16:16:19.617Z,73.37
2022-11-09T16:19:07.080Z,72.10
2022-11-09T16:21:55.224Z,72.25
2022-11-09T16:24:45.280Z,71.22
2022-11-09T16:27:50.852Z,71.11
2022-11-09T16:30:42.883Z,71.90
2022-11-09T16:33:33.135Z,70.44
2022-11-09T16:36:23.867Z,70.96
2022-11-09T16:39:16.947Z,70.32
2022-11-09T16:42:08.835Z,69.81
2022-11-09T16:45:00.728Z,68.68
2022-11-09T16:47:50.814Z,70.77
2022-11-09T16:50:38.849Z,69.16
2022-11-09T16:53:27.264Z,68.22
2022-11-09T16:56:15.412Z,69.44
2022-11-09T16:59:04.722Z,70.33
2022-11-09T17:01:53.525Z,70.60
2022-11-09T17:04:41.305Z,71.91
2022-11-09T17:07:29.223Z,71.92
2022-11-09T17:10:17.346Z,72.14
2022-11-09T17:13:05.742Z,73.21
2022-11-09T17:15:54.753Z,73.56
2022-11-09T17:18:42.725Z,73.83
2022-11-09T17:21:31.265Z,73.90
2022-11-09T17:24:19.091Z,73.70
2022-11-09T17:27:09.115Z,74.55
2022-11-09T17:29:56.967Z,76.45
2022-11-09T17:32:47.985Z,76.54
2022-11-09T17:35:36.695Z,76.93
2022-11-09T17:38:24.966Z,77.13
2022-11-09T17:41:16.357Z,77.93
2022-11-09T17:44:04.251Z,78.27
2022-11-09T17:46:51.728Z,78.15
2022-11-09T17:49:40.612Z,78.57
2022-11-09T17:52:28.669Z,78.66
2022-11-09T17:55:16.173Z,75.82
2022-11-09T17:58:04.071Z,76.74
2022-11-09T18:00:51.707Z,76.34
2022-11-09T18:03:40.320Z,77.42
2022-11-09T18:06:29.877Z,80.12
2022-11-09T18:09:40.311Z,85.97
2022-11-09T18:12:26.645Z,89.59
2022-11-09T18:15:14.316Z,91.67
2022-11-09T18:18:01.897Z,92.12
2022-11-09T18:20:49.395Z,93.43
2022-11-09T18:23:39.329Z,94.23
2022-11-09T18:26:27.219Z,94.83
2022-11-09T18:29:14.764Z,94.79
2022-11-09T18:32:02.325Z,96.16
2022-11-09T18:34:49.697Z,94.62
2022-11-09T18:37:37.504Z,95.07
2022-11-09T18:40:26.755Z,96.06
2022-11-09T18:43:14.391Z,92.80
2022-11-09T18:46:03.826Z,94.72
2022-11-09T18:48:53.528Z,93.63
2022-11-09T18:51:41.066Z,93.72
2022-11-09T18:54:29.246Z,94.55
2022-11-09T18:57:19.996Z,92.24
2022-11-09T19:00:09.486Z,91.74
2022-11-09T19:02:57.115Z,92.13
2022-11-09T19:05:47.428Z,89.00
2022-11-09T19:08:53.113Z,89.09
2022-11-09T19:11:40.961Z,88.74
2022-11-09T19:14:30.474Z,90.14
2022-11-09T19:17:18.369Z,90.11
2022-11-09T19:20:06.951Z,91.29
2022-11-09T19:22:54.684Z,89.40
2022-11-09T19:25:42.628Z,90.41
2022-11-09T19:28:30.238Z,91.35
2022-11-09T19:31:20.953Z,91.91
2022-11-09T19:34:08.467Z,92.39
2022-11-09T19:36:56.139Z,91.87
2022-11-09T19:39:47.441Z,91.42
2022-11-09T19:42:35.145Z,91.12
2022-11-09T19:45:22.584Z,90.40
2022-11-09T19:48:11.533Z,88.23
2022-11-09T19:50:59.450Z,89.10
2022-11-09T19:53:51.318Z,89.64
2022-11-09T19:56:38.973Z,88.14
2022-11-09T19:59:26.371Z,88.51
2022-11-09T20:02:14.050Z,89.27
2022-11-09T20:05:03.103Z,88.30
2022-11-09T20:07:51.013Z,86.78
2022-11-09T20:10:38.690Z,88.36
2022-11-09T20:13:26.389Z,87.71
2022-11-09T20:16:15.072Z,89.15
2022-11-09T20:19:04.145Z,89.14
2022-11-09T20:21:53.190Z,86.88
2022-11-09T20:24:40.921Z,86.98
2022-11-09T20:27:32.367Z,87.23
2022-11-09T20:30:20.517Z,87.43
2022-11-09T20:33:09.574Z,87.16
2022-11-09T20:35:57.965Z,86.86
2022-11-09T20:38:47.505Z,86.24
2022-11-09T20:41:36.354Z,86.03
2022-11-09T20:44:23.934Z,85.62
2022-11-09T20:47:11.382Z,85.97
2022-11-09T20:49:58.784Z,86.28
2022-11-09T20:52:46.396Z,87.88
2022-11-09T20:55:38.536Z,87.21
2022-11-09T20:58:27.229Z,86.94
2022-11-09T21:01:17.221Z,87.33
2022-11-09T21:04:05.257Z,87.45
2022-11-09T21:06:53.086Z,87.85
2022-11-09T21:09:40.694Z,87.85
2022-11-09T21:12:29.656Z,87.43
2022-11-09T21:15:17.677Z,87.40
2022-11-09T21:18:05.581Z,88.09
2022-11-09T21:20:53.480Z,88.28
2022-11-09T21:23:58.960Z,88.52
2022-11-09T21:27:04.179Z,88.17
2022-11-09T21:29:53.264Z,88.21
2022-11-09T21:32:41.193Z,87.29
2022-11-09T21:35:29.066Z,87.95
2022-11-09T21:38:16.777Z,88.10
2022-11-09T21:41:25.446Z,89.23
2022-11-09T21:44:13.862Z,88.94
2022-11-09T21:47:03.358Z,88.88
2022-11-09T21:49:50.897Z,89.73
2022-11-09T21:52:38.464Z,88.97
2022-11-09T21:55:26.174Z,88.68
2022-11-09T21:58:13.501Z,88.58
2022-11-09T22:01:02.628Z,89.76
2022-11-09T22:03:52.381Z,88.86
2022-11-09T22:06:43.170Z,88.88
2022-11-09T22:09:45.190Z,89.11
2022-11-09T22:12:56.666Z,89.56
2022-11-09T22:16:01.964Z,89.77
2022-11-09T22:19:08.690Z,89.52
2022-11-09T22:21:56.458Z,89.65
2022-11-09T22:24:44.427Z,89.29
2022-11-09T22:27:32.584Z,88.96
2022-11-09T22:30:20.535Z,89.69
2022-11-09T22:33:08.192Z,89.82
2022-11-09T22:35:58.236Z,89.94
2022-11-09T22:38:46.577Z,89.16
2022-11-09T22:41:34.426Z,89.57
2022-11-09T22:44:22.389Z,89.63
2022-11-09T22:47:10.033Z,89.52
2022-11-09T22:49:57.661Z,89.24
2022-11-09T22:52:48.880Z,89.01
2022-11-09T22:55:38.494Z,89.89
2022-11-09T22:58:26.877Z,89.69
2022-11-09T23:01:17.233Z,90.09
2022-11-09T23:04:04.933Z,90.12
2022-11-09T23:06:53.176Z,90.00
2022-11-09T23:09:42.153Z,89.36
2022-11-09T23:12:29.829Z,89.50
2022-11-09T23:15:17.282Z,89.85
2022-11-09T23:18:22.740Z,90.10
2022-11-09T23:21:10.417Z,90.22
2022-11-09T23:24:00.028Z,90.39
2022-11-09T23:26:48.845Z,90.27
2022-11-09T23:29:36.175Z,91.10
2022-11-09T23:32:23.682Z,91.45
2022-11-09T23:35:11.550Z,90.32
2022-11-09T23:38:00.052Z,90.96
2022-11-09T23:40:47.847Z,90.69
2022-11-09T23:43:37.345Z,90.98
2022-11-09T23:46:24.793Z,91.89
2022-11-09T23:49:12.434Z,91.13
2022-11-09T23:51:59.976Z,92.34
2022-11-09T23:54:48.228Z,91.32
2022-11-09T23:57:36.081Z,91.91
